Time;durP1;ratioP1;P1;durP2;ratioP2;P2;SDS_P1;SDS_P2;PMS_P1;PMS_P2;Temp;Humidity;BMP_temperature;BMP_pressure;BME280_temperature;BME280_humidity;BME280_pressure;Samples;Min_cycle;Max_cycle;Signal;HPM_P1;HPM_P2
2022/06/19 00:00:05;;;;;;;13.82;2.97;;;;;;;14.89;83.91;101204.69;5011100;28;20169;-46
2022/06/19 00:02:38;;;;;;;19.10;3.72;;;;;;;14.71;82.76;101201.09;5010694;28;20242;-48
2022/06/19 00:05:04;;;;;;;13.65;3.58;;;;;;;14.80;82.53;101196.13;5010433;28;20279;-48
2022/06/19 00:07:30;;;;;;;17.23;3.72;;;;;;;14.95;81.88;101193.59;5011100;28;20307;-47
2022/06/19 00:09:56;;;;;;;13.43;2.85;;;;;;;14.80;81.01;101184.44;5010020;28;20195;-47
2022/06/19 00:12:22;;;;;;;12.77;3.42;;;;;;;14.89;80.47;101193.88;5010758;28;20620;-48
2022/06/19 00:14:47;;;;;;;13.65;3.15;;;;;;;14.75;80.98;101186.50;5010501;28;20181;-47
2022/06/19 00:17:14;;;;;;;12.88;3.20;;;;;;;14.86;80.10;101194.06;5010062;28;20168;-47
2022/06/19 00:19:40;;;;;;;15.98;3.65;;;;;;;14.85;79.70;101198.59;5010743;28;20593;-46
2022/06/19 00:22:06;;;;;;;17.30;3.53;;;;;;;14.81;79.64;101194.28;5010813;28;20251;-45
2022/06/19 00:24:32;;;;;;;15.82;3.60;;;;;;;14.76;80.29;101199.06;5010367;28;20227;-48
2022/06/19 00:26:58;;;;;;;16.63;3.47;;;;;;;14.73;80.19;101200.06;5010521;28;20180;-47
2022/06/19 00:29:23;;;;;;;12.75;3.15;;;;;;;14.66;80.50;101197.75;5009376;28;20701;-50
2022/06/19 00:31:49;;;;;;;13.65;3.50;;;;;;;14.75;80.73;101192.75;5010226;28;20169;-51
2022/06/19 00:34:14;;;;;;;13.13;3.20;;;;;;;14.80;80.25;101200.63;5008955;28;20196;-50
2022/06/19 00:36:40;;;;;;;16.33;3.85;;;;;;;14.69;80.50;101186.78;5010703;28;20203;-50
2022/06/19 00:39:06;;;;;;;22.38;3.55;;;;;;;14.69;80.28;101184.97;5010330;28;20600;-51
2022/06/19 00:41:41;;;;;;;16.80;3.38;;;;;;;14.58;81.64;101187.31;5010525;28;20208;-49
2022/06/19 00:44:09;;;;;;;16.60;3.60;;;;;;;14.51;82.04;101196.63;5008665;28;20191;-50
2022/06/19 00:46:52;;;;;;;14.60;3.45;;;;;;;14.37;82.62;101198.19;5009171;28;20715;-52
2022/06/19 00:49:31;;;;;;;16.77;3.72;;;;;;;14.50;82.71;101209.25;5010000;28;20200;-51
2022/06/19 00:52:19;;;;;;;19.88;4.07;;;;;;;14.51;82.68;101208.28;5010246;28;20256;-50
2022/06/19 00:55:09;;;;;;;19.35;4.10;;;;;;;14.74;82.78;101200.94;5009445;28;20157;-49
2022/06/19 00:57:42;;;;;;;14.55;3.33;;;;;;;14.76;82.64;101194.53;5010482;28;20180;-52
2022/06/19 01:00:10;;;;;;;17.23;3.53;;;;;;;14.67;82.59;101203.06;5010210;28;20226;-50
2022/06/19 01:02:39;;;;;;;16.25;3.17;;;;;;;14.81;83.07;101205.09;5010302;28;20295;-50
2022/06/19 01:05:05;;;;;;;19.33;4.07;;;;;;;14.61;82.98;101179.09;5009779;28;20251;-52
2022/06/19 01:07:31;;;;;;;16.52;3.33;;;;;;;14.73;83.89;101186.56;5009854;28;20188;-51
2022/06/19 01:09:57;;;;;;;17.83;4.57;;;;;;;14.56;84.43;101179.34;5010308;28;20180;-51
2022/06/19 01:12:24;;;;;;;19.25;3.80;;;;;;;14.65;84.59;101169.91;5010119;28;20179;-53
2022/06/19 01:14:56;;;;;;;18.77;3.97;;;;;;;14.51;84.23;101175.94;5009560;28;20208;-52
2022/06/19 01:17:22;;;;;;;19.77;3.97;;;;;;;14.61;84.18;101182.66;5010103;28;20177;-51
2022/06/19 01:19:48;;;;;;;18.30;3.60;;;;;;;14.55;85.21;101174.88;5009656;28;20189;-51
2022/06/19 01:22:39;;;;;;;19.42;3.65;;;;;;;14.55;85.04;101168.63;5009940;28;20568;-51
2022/06/19 01:25:13;;;;;;;20.02;3.67;;;;;;;14.45;85.08;101161.88;5009576;28;20206;-52
2022/06/19 01:30:33;;;;;;;20.45;3.63;;;;;;;14.45;85.62;101148.41;5013093;28;20535;-50
2022/06/19 01:33:01;;;;;;;15.20;3.72;;;;;;;14.60;85.66;101131.50;5028443;28;20235;-50
2022/06/19 01:35:30;;;;;;;19.02;4.00;;;;;;;14.56;85.14;101127.19;5013962;28;20584;-52
2022/06/19 01:37:57;;;;;;;13.65;3.08;;;;;;;14.75;85.06;101110.97;5028856;28;20260;-52
2022/06/19 01:40:31;;;;;;;17.92;3.83;;;;;;;14.85;84.37;101112.25;5013640;28;20675;-51
2022/06/19 01:42:57;;;;;;;16.98;3.60;;;;;;;14.40;85.07;101103.66;5012997;28;20201;-53
2022/06/19 01:45:23;;;;;;;11.77;3.55;;;;;;;14.76;85.47;101100.13;5013716;28;20271;-51
2022/06/19 01:47:49;;;;;;;17.60;4.00;;;;;;;14.58;85.12;101065.97;5013493;28;20239;-52
2022/06/19 01:50:19;;;;;;;18.60;4.10;;;;;;;14.00;87.38;101046.38;5013594;28;20165;-50
2022/06/19 01:52:48;;;;;;;19.17;3.55;;;;;;;14.26;88.34;101030.72;5013449;28;20164;-51
2022/06/19 01:55:18;;;;;;;15.63;3.95;;;;;;;14.33;88.32;101037.56;5003313;28;20205;-52
2022/06/19 01:57:48;;;;;;;13.85;3.38;;;;;;;14.43;87.94;101030.75;5010855;28;20180;-51
2022/06/19 02:00:20;;;;;;;19.42;4.05;;;;;;;14.52;87.31;101025.81;5012791;28;20180;-51
2022/06/19 02:02:52;;;;;;;17.42;4.10;;;;;;;14.50;87.42;101019.66;5012523;28;20203;-52
2022/06/19 02:05:18;;;;;;;16.50;3.80;;;;;;;14.37;87.94;100993.31;4996325;28;20291;-52
2022/06/19 02:07:44;;;;;;;22.27;3.97;;;;;;;14.31;88.56;100990.94;5009683;28;20180;-50
2022/06/19 02:10:10;;;;;;;20.13;4.00;;;;;;;14.60;87.75;100989.44;5012805;28;20169;-51
2022/06/19 02:12:36;;;;;;;15.68;3.38;;;;;;;14.59;86.92;100987.72;5012373;28;20165;-52
2022/06/19 02:15:08;;;;;;;16.08;3.72;;;;;;;14.58;87.31;100993.19;5012486;28;20203;-52
2022/06/19 02:17:38;;;;;;;18.65;3.78;;;;;;;14.58;87.20;100979.69;5012361;28;20176;-51
2022/06/19 02:20:05;;;;;;;17.10;4.00;;;;;;;14.59;87.12;100962.59;5012662;28;20361;-51
2022/06/19 02:22:30;;;;;;;16.25;3.92;;;;;;;14.73;87.80;100961.84;5011808;28;20668;-51
2022/06/19 02:24:56;;;;;;;17.95;3.80;;;;;;;14.83;86.85;100972.06;5012417;28;20266;-51
2022/06/19 02:27:23;;;;;;;16.58;3.05;;;;;;;14.91;86.21;100976.16;5012880;28;20181;-50
2022/06/19 02:29:49;;;;;;;13.50;3.50;;;;;;;14.95;85.97;100989.41;5011482;28;20185;-51
2022/06/19 02:32:27;;;;;;;15.13;3.75;;;;;;;14.88;87.14;101008.72;5012088;28;20168;-51
2022/06/19 02:34:53;;;;;;;11.10;3.25;;;;;;;14.80;87.77;101023.47;5011936;28;20238;-51
2022/06/19 02:37:21;;;;;;;17.85;3.50;;;;;;;14.69;88.06;101020.44;5012627;28;20173;-52
2022/06/19 02:39:59;;;;;;;13.70;3.10;;;;;;;14.70;88.49;101038.41;5012776;28;20180;-52
2022/06/19 02:42:43;;;;;;;15.82;3.72;;;;;;;14.72;88.47;101058.06;5011536;28;20263;-50
2022/06/19 02:45:20;;;;;;;17.17;4.20;;;;;;;14.79;88.35;101064.88;5011845;28;20197;-52
2022/06/19 02:47:48;;;;;;;22.60;4.45;;;;;;;14.77;88.25;101050.59;5011590;28;20295;-52
2022/06/19 02:50:18;;;;;;;21.90;4.65;;;;;;;14.59;89.49;101043.47;5012581;28;20165;-52
2022/06/19 02:52:44;;;;;;;17.45;3.53;;;;;;;14.71;90.71;101042.81;5011991;28;20165;-52
2022/06/19 02:55:10;;;;;;;18.23;4.18;;;;;;;14.70;90.34;101041.09;5011493;28;20266;-51
2022/06/19 02:57:36;;;;;;;21.52;4.18;;;;;;;14.67;90.18;101049.34;5011914;28;20238;-51
2022/06/19 03:00:05;;;;;;;19.17;4.47;;;;;;;14.69;90.16;101060.03;5012073;28;20165;-51
2022/06/19 03:02:31;;;;;;;14.18;3.53;;;;;;;14.75;90.39;101065.13;5012254;28;20628;-51
2022/06/19 03:05:03;;;;;;;17.48;4.05;;;;;;;14.69;90.62;101066.31;5011332;28;20208;-52
2022/06/19 03:07:29;;;;;;;22.10;4.43;;;;;;;14.66;91.04;101079.97;5012118;28;20252;-49
2022/06/19 03:09:55;;;;;;;15.35;3.95;;;;;;;14.66;91.48;101116.84;5011845;28;20647;-51
2022/06/19 03:12:21;;;;;;;12.80;3.60;;;;;;;14.65;92.07;101142.03;5011642;28;20200;-51
2022/06/19 03:14:47;;;;;;;21.58;4.82;;;;;;;14.34;92.53;101133.66;5011180;28;20171;-53
2022/06/19 03:17:22;;;;;;;22.80;4.85;;;;;;;14.22;93.24;101161.19;5012103;28;20703;-52
2022/06/19 03:19:48;;;;;;;22.67;4.70;;;;;;;14.31;93.75;101214.66;5011812;28;20180;-51
2022/06/19 03:22:13;;;;;;;20.65;5.25;;;;;;;14.13;94.13;101184.06;5009790;28;20698;-51
2022/06/19 03:24:40;;;;;;;15.02;4.05;;;;;;;14.12;94.93;101132.94;5011227;28;20181;-51
2022/06/19 03:27:06;;;;;;;19.88;3.90;;;;;;;14.13;95.36;101146.34;5011578;28;20226;-52
2022/06/19 03:29:32;;;;;;;29.00;5.22;;;;;;;14.25;94.82;101182.59;5011881;28;20168;-50
2022/06/19 03:31:58;;;;;;;23.95;3.90;;;;;;;14.28;94.63;101179.75;5011310;28;20531;-52
2022/06/19 03:34:24;;;;;;;23.85;4.22;;;;;;;14.15;95.43;101148.97;5010557;28;20335;-52
2022/06/19 03:36:49;;;;;;;30.92;5.22;;;;;;;13.86;97.32;101089.25;5010758;28;20201;-53
2022/06/19 03:39:15;;;;;;;20.20;4.60;;;;;;;13.79;99.22;101039.31;5011126;28;20226;-50
2022/06/19 03:41:40;;;;;;;26.33;4.45;;;;;;;13.79;99.81;101033.94;5010973;28;20220;-51
2022/06/19 03:44:06;;;;;;;20.38;4.20;;;;;;;13.79;99.24;101091.34;5010651;28;20250;-51
2022/06/19 03:46:32;;;;;;;14.80;5.03;;;;;;;13.97;98.57;101121.06;5011066;28;20292;-51
2022/06/19 03:48:58;;;;;;;22.17;4.93;;;;;;;14.00;98.06;101124.50;5010032;28;20650;-52
2022/06/19 03:51:23;;;;;;;22.33;4.88;;;;;;;13.98;98.10;101114.75;5011044;28;20191;-51
2022/06/19 03:53:53;;;;;;;20.67;4.82;;;;;;;13.98;97.85;101067.13;5010376;28;20184;-52
2022/06/19 03:56:26;;;;;;;23.95;5.28;;;;;;;13.88;98.82;101003.00;5008198;28;20200;-51
2022/06/19 03:58:53;;;;;;;28.95;5.22;;;;;;;13.89;99.41;100967.03;5010678;28;20203;-52
2022/06/19 04:01:23;;;;;;;26.95;5.40;;;;;;;13.88;98.97;100989.53;5010874;28;20169;-53
2022/06/19 04:03:51;;;;;;;23.73;5.65;;;;;;;13.86;99.04;100997.66;5001845;28;20228;-52
2022/06/19 04:06:18;;;;;;;23.00;5.38;;;;;;;13.75;100.00;100983.88;5010268;28;20204;-53
2022/06/19 04:08:46;;;;;;;11.52;3.60;;;;;;;13.56;99.54;100995.53;5009070;28;20573;-48
2022/06/19 04:11:12;;;;;;;16.83;4.25;;;;;;;13.58;97.06;101004.41;5010538;28;20193;-52
2022/06/19 04:13:38;;;;;;;9.68;2.50;;;;;;;13.52;93.29;101031.63;5009770;28;20620;-52
2022/06/19 04:16:04;;;;;;;12.35;1.98;;;;;;;13.50;85.51;101003.91;5010492;28;20196;-51
2022/06/19 04:18:31;;;;;;;9.23;2.38;;;;;;;13.50;83.33;101009.28;5010315;28;20374;-52
2022/06/19 04:20:58;;;;;;;6.55;2.25;;;;;;;13.42;82.94;101024.91;5010160;28;20187;-51
2022/06/19 04:23:24;;;;;;;9.48;1.80;;;;;;;13.43;83.64;101053.59;5009798;28;20204;-51
2022/06/19 04:25:51;;;;;;;7.57;1.77;;;;;;;13.43;83.49;101056.28;5010006;28;20671;-53
2022/06/19 04:28:18;;;;;;;6.10;1.60;;;;;;;13.38;83.13;101020.63;5010500;28;20262;-53
2022/06/19 04:30:46;;;;;;;6.68;2.10;;;;;;;13.35;81.31;100983.09;5010246;28;20188;-51
2022/06/19 04:33:14;;;;;;;4.03;1.58;;;;;;;13.34;79.66;100949.06;5008332;28;20183;-53
2022/06/19 04:35:40;;;;;;;5.90;1.60;;;;;;;13.43;78.98;100934.31;5010407;28;20201;-53
2022/06/19 04:38:05;;;;;;;5.32;1.60;;;;;;;13.45;79.01;100905.50;5008765;28;20636;-52
2022/06/19 04:40:36;;;;;;;6.22;1.42;;;;;;;13.50;78.61;100896.22;5009227;28;20252;-52
2022/06/19 04:43:04;;;;;;;4.85;1.60;;;;;;;13.52;78.76;100896.16;5009672;28;20184;-53
2022/06/19 04:45:30;;;;;;;6.13;1.80;;;;;;;13.50;79.38;100877.41;5008793;28;20204;-53
2022/06/19 04:47:56;;;;;;;8.00;1.65;;;;;;;13.67;79.64;100887.31;5009701;28;20181;-53
2022/06/19 04:50:22;;;;;;;8.63;2.38;;;;;;;13.63;79.26;100915.34;5010348;28;20176;-52
2022/06/19 04:52:48;;;;;;;7.78;1.65;;;;;;;13.49;78.88;100959.09;5010180;28;20238;-51
2022/06/19 04:55:15;;;;;;;5.75;1.50;;;;;;;13.43;79.05;100996.22;5009375;28;20287;-52
2022/06/19 04:57:41;;;;;;;8.27;1.50;;;;;;;13.39;78.71;101003.53;5010231;28;20176;-53
2022/06/19 05:00:10;;;;;;;11.02;2.33;;;;;;;13.40;78.50;100962.22;5008542;28;20184;-53
2022/06/19 05:02:36;;;;;;;4.78;1.30;;;;;;;13.56;79.18;100925.56;5010140;28;20701;-53
2022/06/19 05:05:03;;;;;;;6.57;1.70;;;;;;;13.53;79.07;100923.00;5012240;28;20192;-53
2022/06/19 05:07:28;;;;;;;6.15;1.60;;;;;;;13.48;79.26;100943.03;5014222;28;20176;-53
2022/06/19 05:09:54;;;;;;;8.90;1.75;;;;;;;13.44;79.86;101012.25;5014301;28;20568;-51
2022/06/19 05:12:19;;;;;;;7.63;1.88;;;;;;;13.59;80.44;101077.97;5013742;28;20157;-51
2022/06/19 05:14:45;;;;;;;9.75;2.00;;;;;;;13.47;80.49;101052.50;5013357;28;20271;-52
2022/06/19 05:17:10;;;;;;;6.53;1.90;;;;;;;13.46;79.75;101025.66;5013964;28;20165;-52
2022/06/19 05:19:40;;;;;;;4.13;1.58;;;;;;;13.39;80.67;101025.94;5014111;28;20169;-52
2022/06/19 05:22:06;;;;;;;11.07;2.00;;;;;;;13.39;81.82;101003.53;5013296;28;20299;-52
2022/06/19 05:24:35;;;;;;;9.93;2.40;;;;;;;13.03;84.70;100998.91;5013369;28;20268;-52
2022/06/19 05:27:03;;;;;;;9.82;2.15;;;;;;;12.93;86.71;100949.16;5014082;28;20188;-53
2022/06/19 05:29:29;;;;;;;7.30;2.08;;;;;;;13.03;89.24;100963.94;5013658;28;20197;-50
2022/06/19 05:31:54;;;;;;;10.40;2.55;;;;;;;12.97;88.90;101007.25;5013842;28;20161;-52
2022/06/19 05:34:20;;;;;;;4.88;1.98;;;;;;;12.80;89.85;101040.28;5013089;28;20591;-52
2022/06/19 05:36:45;;;;;;;10.93;2.38;;;;;;;12.66;89.79;101003.25;5013845;28;20200;-53
2022/06/19 05:39:10;;;;;;;7.85;2.28;;;;;;;12.82;90.23;100970.31;5013403;28;20812;-51
2022/06/19 05:41:40;;;;;;;7.05;2.40;;;;;;;13.00;90.58;100945.25;5013079;28;20194;-53
2022/06/19 05:44:06;;;;;;;7.35;2.00;;;;;;;12.85;90.74;100954.00;5013166;28;20173;-50
2022/06/19 05:46:32;;;;;;;7.25;2.10;;;;;;;12.67;92.21;100945.84;5011704;28;20201;-51
2022/06/19 05:48:57;;;;;;;7.43;1.98;;;;;;;12.65;92.86;100936.09;5013302;28;20551;-49
2022/06/19 05:51:25;;;;;;;6.70;2.22;;;;;;;12.54;93.22;100950.88;5013140;28;20169;-48
2022/06/19 05:53:55;;;;;;;10.55;2.78;;;;;;;12.49;95.01;100954.75;5013391;28;20184;-49
2022/06/19 05:56:22;;;;;;;10.32;2.85;;;;;;;12.79;95.28;100976.69;5013132;28;20247;-49
2022/06/19 05:58:48;;;;;;;10.57;3.35;;;;;;;12.72;96.34;100999.41;5013445;28;20234;-51
2022/06/19 06:01:15;;;;;;;12.05;3.28;;;;;;;12.34;98.84;100980.47;5013395;28;20184;-49
2022/06/19 06:03:44;;;;;;;11.65;3.22;;;;;;;12.38;99.39;100987.47;5012294;28;20197;-49
2022/06/19 06:06:18;;;;;;;14.15;2.83;;;;;;;12.37;100.00;101017.94;5013276;28;20200;-49
2022/06/19 06:08:44;;;;;;;9.40;2.92;;;;;;;12.58;100.00;101080.66;5012932;28;20165;-49
2022/06/19 06:11:10;;;;;;;14.05;3.30;;;;;;;12.60;100.00;101116.41;5013404;28;20176;-50
2022/06/19 06:13:35;;;;;;;14.63;3.10;;;;;;;11.98;100.00;101050.00;5023864;28;20251;-47
2022/06/19 06:16:02;;;;;;;15.23;3.33;;;;;;;11.75;100.00;101001.66;5030971;28;20689;-46
2022/06/19 06:18:28;;;;;;;16.90;3.60;;;;;;;11.66;100.00;101015.44;5031653;28;20607;-46
2022/06/19 06:21:18;;;;;;;23.00;4.05;;;;;;;11.53;100.00;100968.56;5012176;28;20549;-48
2022/06/19 06:23:44;;;;;;;14.05;3.97;;;;;;;11.49;100.00;100922.19;5009976;28;20274;-47
2022/06/19 06:26:12;;;;;;;20.92;3.90;;;;;;;11.58;100.00;100899.47;5011513;28;20231;-48
2022/06/19 06:28:40;;;;;;;20.30;3.88;;;;;;;11.46;100.00;100921.47;5012080;28;20173;-47
2022/06/19 06:31:06;;;;;;;20.15;4.00;;;;;;;11.62;100.00;100927.94;5012627;28;20222;-48
2022/06/19 06:33:32;;;;;;;22.75;3.95;;;;;;;11.71;100.00;100876.56;5011815;28;20165;-47
2022/06/19 06:35:58;;;;;;;13.93;3.42;;;;;;;11.77;100.00;100874.56;5012370;28;20215;-47
2022/06/19 06:38:24;;;;;;;17.20;3.28;;;;;;;11.88;100.00;100945.69;5011696;28;20268;-48
2022/06/19 06:40:51;;;;;;;25.10;3.70;;;;;;;11.84;100.00;100970.00;5012440;28;20703;-46
2022/06/19 06:43:18;;;;;;;17.73;3.85;;;;;;;11.81;100.00;100989.81;5011998;28;20192;-48
2022/06/19 06:45:43;;;;;;;18.45;4.53;;;;;;;11.77;100.00;100955.97;5012051;28;20205;-47
2022/06/19 06:48:09;;;;;;;20.02;3.50;;;;;;;11.83;100.00;100944.97;5011367;28;20250;-48
2022/06/19 06:50:37;;;;;;;24.33;4.35;;;;;;;11.85;100.00;100935.06;5011347;28;20184;-47
2022/06/19 06:53:03;;;;;;;16.67;3.55;;;;;;;11.77;100.00;100944.38;5011601;28;20176;-48
2022/06/19 06:55:28;;;;;;;19.27;3.80;;;;;;;11.79;100.00;100926.38;5012031;28;20518;-47
2022/06/19 06:57:54;;;;;;;18.85;3.65;;;;;;;11.83;100.00;100893.06;5011809;28;20315;-49
2022/06/19 07:00:22;;;;;;;15.32;3.13;;;;;;;11.87;100.00;100883.97;5012309;28;20172;-47
2022/06/19 07:02:48;;;;;;;11.90;2.88;;;;;;;11.83;100.00;100853.72;5011458;28;20192;-48
2022/06/19 07:05:14;;;;;;;13.98;3.17;;;;;;;11.94;100.00;100856.81;5011622;28;20252;-46
2022/06/19 07:07:40;;;;;;;13.57;3.75;;;;;;;12.05;100.00;100856.34;5011785;28;20259;-47
2022/06/19 07:10:06;;;;;;;17.73;3.17;;;;;;;12.05;100.00;100858.19;5010647;28;20319;-47
2022/06/19 07:12:32;;;;;;;12.57;3.13;;;;;;;12.36;100.00;100871.97;5011868;28;20258;-46
2022/06/19 07:14:57;;;;;;;10.88;2.88;;;;;;;12.63;100.00;100877.03;5011026;28;20679;-47
2022/06/19 07:17:23;;;;;;;14.13;2.85;;;;;;;12.60;100.00;100865.56;5011564;28;20865;-48
2022/06/19 07:19:48;;;;;;;11.20;3.05;;;;;;;12.82;100.00;100866.31;5010759;28;20185;-48
2022/06/19 07:22:16;;;;;;;12.15;2.88;;;;;;;12.62;100.00;100861.88;5011236;28;20259;-46
2022/06/19 07:24:42;;;;;;;13.90;2.42;;;;;;;12.55;100.00;100849.63;5011488;28;20184;-48
2022/06/19 07:27:08;;;;;;;9.43;2.33;;;;;;;12.50;100.00;100865.09;5010954;28;20161;-46
2022/06/19 07:29:34;;;;;;;11.25;2.55;;;;;;;12.56;100.00;100867.50;5011259;28;20659;-45
2022/06/19 07:31:59;;;;;;;11.57;2.53;;;;;;;12.66;100.00;100863.47;5011486;28;20573;-47
2022/06/19 07:34:25;;;;;;;10.55;2.95;;;;;;;12.77;100.00;100861.16;5011050;28;20173;-47
2022/06/19 07:36:50;;;;;;;9.48;2.42;;;;;;;12.83;100.00;100851.03;5011521;28;20542;-46
2022/06/19 07:39:16;;;;;;;11.77;3.15;;;;;;;13.04;100.00;100841.94;5011372;28;20184;-45
2022/06/19 07:41:42;;;;;;;8.73;2.00;;;;;;;13.03;100.00;100829.47;5010120;28;20177;-45
2022/06/19 07:44:07;;;;;;;10.25;2.45;;;;;;;13.19;100.00;100826.88;5010811;28;20165;-46
2022/06/19 07:50:09;;;;;;;11.95;2.75;;;;;;;13.25;100.00;100817.63;5011068;28;20221;-45
2022/06/19 07:52:03;;;;;;;14.30;2.70;;;;;;;13.42;100.00;100835.66;5030786;28;20179;-46
2022/06/19 07:54:29;;;;;;;12.63;2.85;;;;;;;13.33;100.00;100832.47;5030456;28;20172;-46
2022/06/19 07:56:54;;;;;;;9.68;2.58;;;;;;;13.24;100.00;100854.41;5030659;28;20227;-47
2022/06/19 07:59:20;;;;;;;9.88;2.95;;;;;;;13.22;100.00;100850.94;5030431;28;20187;-47
2022/06/19 08:01:46;;;;;;;12.10;2.30;;;;;;;13.25;100.00;100853.50;5031295;28;20208;-46
2022/06/19 08:04:11;;;;;;;12.45;2.50;;;;;;;13.39;100.00;100863.59;5030392;28;20165;-47
2022/06/19 08:06:37;;;;;;;13.07;2.67;;;;;;;13.20;100.00;100856.38;5030787;28;20214;-48
2022/06/19 08:09:03;;;;;;;10.30;2.53;;;;;;;13.37;100.00;100865.50;5030467;28;20200;-46
2022/06/19 08:11:28;;;;;;;10.05;2.38;;;;;;;13.51;100.00;100863.00;5030492;28;20172;-47
2022/06/19 08:13:54;;;;;;;10.32;2.55;;;;;;;13.46;100.00;100866.84;5029685;28;20168;-44
2022/06/19 08:16:19;;;;;;;8.70;2.13;;;;;;;13.41;100.00;100855.47;5008635;28;20687;-50
2022/06/19 08:18:45;;;;;;;13.82;3.30;;;;;;;13.43;100.00;100851.75;5000259;28;20204;-48
2022/06/19 08:21:10;;;;;;;7.80;2.47;;;;;;;13.57;100.00;100851.03;5009434;28;20188;-49
2022/06/19 08:23:36;;;;;;;10.80;2.50;;;;;;;13.54;100.00;100862.84;5009933;28;20676;-49
2022/06/19 08:26:01;;;;;;;10.68;2.42;;;;;;;13.52;100.00;100875.50;5010545;28;20210;-48
2022/06/19 08:31:11;;;;;;;9.52;2.60;;;;;;;13.42;100.00;100895.72;5005235;28;20195;-49
2022/06/19 08:33:37;;;;;;;8.00;2.08;;;;;;;13.36;100.00;100896.06;5008330;28;20567;-47
2022/06/19 08:36:08;;;;;;;9.15;2.38;;;;;;;13.31;100.00;100906.16;5010205;28;20204;-49
2022/06/19 08:38:38;;;;;;;12.88;2.40;;;;;;;13.23;100.00;100890.38;5009715;28;20173;-47
2022/06/19 08:41:07;;;;;;;15.35;2.80;;;;;;;13.30;100.00;100880.22;5010229;28;20176;-48
2022/06/19 08:43:50;;;;;;;9.57;2.30;;;;;;;13.32;100.00;100884.56;5009724;28;20212;-49
2022/06/19 08:46:35;;;;;;;9.45;2.60;;;;;;;13.23;100.00;100895.75;5009803;28;20300;-48
2022/06/19 08:49:25;;;;;;;12.20;2.75;;;;;;;13.38;100.00;100895.03;5004708;28;20208;-48
2022/06/19 08:52:23;;;;;;;8.77;2.38;;;;;;;13.48;100.00;100899.97;5009672;28;20187;-49
2022/06/19 08:55:07;;;;;;;6.78;1.98;;;;;;;13.46;100.00;100928.75;4990675;28;20663;-48
2022/06/19 08:57:51;;;;;;;11.30;2.35;;;;;;;13.57;100.00;100940.75;5009656;28;20686;-48
2022/06/19 09:00:37;;;;;;;9.63;2.40;;;;;;;13.56;100.00;100941.69;5009638;28;20188;-50
2022/06/19 09:03:23;;;;;;;10.63;2.50;;;;;;;13.62;100.00;100955.81;5008454;28;20350;-44
2022/06/19 09:05:58;;;;;;;7.43;1.85;;;;;;;13.78;100.00;100956.81;5007758;28;20208;-44
2022/06/19 09:08:48;;;;;;;9.40;2.60;;;;;;;13.84;100.00;100959.19;5001844;28;20195;-45
2022/06/19 09:11:57;;;;;;;8.57;2.33;;;;;;;13.72;100.00;100957.09;5001153;28;20193;-43
2022/06/19 09:15:05;;;;;;;10.57;2.53;;;;;;;13.73;100.00;100956.13;5007244;28;20188;-44
2022/06/19 09:17:43;;;;;;;10.45;2.58;;;;;;;13.74;100.00;100957.91;4997115;28;20196;-43
2022/06/19 09:20:33;;;;;;;9.85;3.03;;;;;;;14.06;100.00;100960.78;4990481;28;20231;-45
2022/06/19 09:23:37;;;;;;;9.27;2.75;;;;;;;14.17;100.00;100963.84;4989802;28;20194;-45
2022/06/19 09:26:08;;;;;;;9.75;2.45;;;;;;;14.27;100.00;100954.31;5001788;28;20208;-45
2022/06/19 09:28:33;;;;;;;10.60;2.65;;;;;;;14.36;100.00;100953.81;5005280;28;20210;-44
2022/06/19 09:31:15;;;;;;;10.32;2.60;;;;;;;14.11;100.00;100966.84;4990290;28;20178;-44
2022/06/19 09:34:09;;;;;;;8.20;2.38;;;;;;;14.06;100.00;100967.06;5007407;28;20216;-44
2022/06/19 09:36:49;;;;;;;10.90;3.28;;;;;;;14.10;100.00;100957.00;5005793;28;20201;-44
2022/06/19 09:39:33;;;;;;;9.32;2.50;;;;;;;14.35;100.00;100945.84;4990062;28;20366;-45
2022/06/19 09:42:09;;;;;;;8.48;2.67;;;;;;;14.53;100.00;100944.84;4990081;28;20202;-44
2022/06/19 09:44:40;;;;;;;8.45;2.30;;;;;;;14.45;99.23;100965.09;4990461;28;20169;-44
2022/06/19 09:47:12;;;;;;;9.32;2.63;;;;;;;14.65;99.41;100978.44;4990029;28;20186;-43
2022/06/19 09:49:44;;;;;;;12.85;3.45;;;;;;;14.31;98.62;100961.28;5028097;28;20199;-43
2022/06/19 09:52:18;;;;;;;9.65;2.88;;;;;;;14.50;98.92;100971.13;5008222;28;20189;-44
2022/06/19 09:54:55;;;;;;;11.25;2.45;;;;;;;14.62;98.95;100965.09;5010410;28;20283;-43
2022/06/19 09:57:31;;;;;;;12.65;3.15;;;;;;;14.43;98.23;100975.97;4998750;28;20223;-43
2022/06/19 10:00:03;;;;;;;9.77;2.70;;;;;;;14.39;99.11;100986.03;4993158;28;20352;-43
2022/06/19 10:03:12;;;;;;;12.52;2.97;;;;;;;14.27;99.20;100994.72;4993492;28;20217;-42
2022/06/19 10:05:41;;;;;;;11.15;3.13;;;;;;;14.10;99.71;101000.09;4995734;28;20734;-45
2022/06/19 10:08:23;;;;;;;12.18;2.85;;;;;;;14.04;99.82;100995.00;4997494;28;20181;-44
2022/06/19 10:10:57;;;;;;;9.23;3.10;;;;;;;14.15;100.00;100987.28;5012727;28;20575;-43
2022/06/19 10:13:33;;;;;;;10.50;2.50;;;;;;;14.00;100.00;100984.41;5012986;28;20168;-43
2022/06/19 10:16:01;;;;;;;10.18;2.65;;;;;;;14.07;100.00;100992.19;5012865;28;20632;-44
2022/06/19 10:18:34;;;;;;;8.38;2.70;;;;;;;13.93;100.00;101007.22;5012573;28;20263;-42
2022/06/19 10:24:39;;;;;;;12.68;2.72;;;;;;;13.86;100.00;101016.53;5012054;28;20296;-44
2022/06/19 10:27:31;;;;;;;13.55;3.08;;;;;;;13.94;100.00;101017.03;5012688;28;20262;-45
2022/06/19 10:30:09;;;;;;;9.38;2.80;;;;;;;14.09;100.00;101019.94;5011260;28;20207;-44
2022/06/19 10:32:53;;;;;;;9.75;2.60;;;;;;;13.90;100.00;101039.66;5018024;28;20187;-45
2022/06/19 10:35:37;;;;;;;11.38;2.75;;;;;;;13.99;100.00;101041.94;5021864;28;20200;-42
2022/06/19 10:38:38;;;;;;;11.93;2.55;;;;;;;13.85;100.00;101039.03;5018542;28;20534;-43
2022/06/19 10:42:00;;;;;;;10.88;2.63;;;;;;;13.89;100.00;101047.84;5017388;28;20575;-44
2022/06/19 10:44:24;;;;;;;10.43;2.90;;;;;;;13.77;100.00;101034.03;5011749;28;20200;-43
2022/06/19 10:47:07;;;;;;;12.85;3.10;;;;;;;13.60;100.00;101034.84;5012164;28;20259;-41
2022/06/19 10:49:43;;;;;;;8.75;2.92;;;;;;;13.70;100.00;101037.09;5031787;28;20724;-44
2022/06/19 10:52:20;;;;;;;7.55;2.35;;;;;;;13.62;100.00;101026.66;5031640;28;20183;-44
2022/06/19 10:55:10;;;;;;;8.65;2.72;;;;;;;13.62;100.00;101015.91;5031538;28;20215;-44
2022/06/19 10:58:02;;;;;;;9.13;2.58;;;;;;;13.63;100.00;101023.03;5032021;28;20204;-43
2022/06/19 11:00:28;;;;;;;10.60;2.20;;;;;;;13.62;100.00;101021.28;5031925;28;20592;-43
2022/06/19 11:05:53;;;;;;;9.57;2.38;;;;;;;13.68;100.00;101026.38;5031896;28;20199;-43
2022/06/19 11:08:21;;;;;;;7.88;2.30;;;;;;;13.75;100.00;101022.47;5031601;28;20199;-43
2022/06/19 11:10:54;;;;;;;7.63;2.53;;;;;;;13.68;100.00;101012.91;5031706;28;20168;-43
2022/06/19 11:13:19;;;;;;;10.40;2.25;;;;;;;13.63;100.00;101014.09;5031495;28;20191;-43
2022/06/19 11:15:59;;;;;;;7.43;2.50;;;;;;;13.55;100.00;101003.69;5031393;28;20200;-42
2022/06/19 11:18:25;;;;;;;12.32;2.78;;;;;;;13.56;100.00;101006.31;5031946;28;20180;-43
2022/06/19 11:20:57;;;;;;;7.20;1.90;;;;;;;13.48;100.00;101002.25;5031573;28;20176;-43
2022/06/19 11:23:29;;;;;;;7.60;2.22;;;;;;;13.47;100.00;101008.56;5031041;28;20294;-44
2022/06/19 11:25:58;;;;;;;8.38;2.10;;;;;;;13.48;100.00;101013.88;5031461;28;20214;-42
2022/06/19 11:28:39;;;;;;;7.72;1.80;;;;;;;13.52;100.00;101015.47;5031333;28;20172;-43
2022/06/19 11:31:13;;;;;;;10.38;2.60;;;;;;;13.54;100.00;101013.59;5031361;28;20198;-42
2022/06/19 11:33:40;;;;;;;8.50;2.22;;;;;;;13.56;100.00;101000.06;5030762;28;20160;-42
2022/06/19 11:36:08;;;;;;;7.15;1.90;;;;;;;13.48;100.00;100995.03;5031439;28;20207;-42
2022/06/19 11:38:45;;;;;;;7.40;2.30;;;;;;;13.54;100.00;100989.34;5031094;28;20180;-41
2022/06/19 11:41:16;;;;;;;4.72;1.95;;;;;;;13.55;99.58;100988.41;5031237;28;20168;-44
2022/06/19 11:43:41;;;;;;;4.18;1.77;;;;;;;13.59;99.16;100986.44;5030426;28;20192;-44
2022/06/19 11:46:16;;;;;;;7.38;2.00;;;;;;;13.56;98.60;100968.63;5029504;28;20572;-43